sensor_id;sensor_type;location;lat;lon;timestamp;P1;durP1;ratioP1;P2;durP2;ratioP2
9234;SDS011;4652;42.716;23.218;2024-02-16T00:02:06;13.15;;;6.07;;
9234;SDS011;4652;42.716;23.218;2024-02-16T00:04:32;12.27;;;5.95;;
9234;SDS011;4652;42.716;23.218;2024-02-16T00:06:59;11.75;;;5.40;;
9234;SDS011;4652;42.716;23.218;2024-02-16T00:09:25;14.48;;;7.25;;
9234;SDS011;4652;42.716;23.218;2024-02-16T00:11:52;11.43;;;5.22;;
9234;SDS011;4652;42.716;23.218;2024-02-16T00:14:19;14.77;;;4.85;;
9234;SDS011;4652;42.716;23.218;2024-02-16T00:16:45;12.55;;;5.53;;
9234;SDS011;4652;42.716;23.218;2024-02-16T00:19:11;12.32;;;5.00;;
9234;SDS011;4652;42.716;23.218;2024-02-16T00:21:37;8.48;;;4.45;;
9234;SDS011;4652;42.716;23.218;2024-02-16T00:24:07;10.68;;;4.88;;
9234;SDS011;4652;42.716;23.218;2024-02-16T00:26:33;12.82;;;5.18;;
9234;SDS011;4652;42.716;23.218;2024-02-16T00:28:59;8.65;;;4.28;;
9234;SDS011;4652;42.716;23.218;2024-02-16T00:31:25;9.77;;;4.20;;
9234;SDS011;4652;42.716;23.218;2024-02-16T00:33:51;7.40;;;3.97;;
9234;SDS011;4652;42.716;23.218;2024-02-16T00:36:17;8.60;;;4.93;;
9234;SDS011;4652;42.716;23.218;2024-02-16T00:38:44;13.93;;;6.25;;
9234;SDS011;4652;42.716;23.218;2024-02-16T00:41:16;12.02;;;5.60;;
9234;SDS011;4652;42.716;23.218;2024-02-16T00:43:44;10.02;;;5.50;;
9234;SDS011;4652;42.716;23.218;2024-02-16T00:46:11;10.18;;;4.50;;
9234;SDS011;4652;42.716;23.218;2024-02-16T00:48:37;10.75;;;4.78;;
9234;SDS011;4652;42.716;23.218;2024-02-16T00:51:03;12.07;;;5.57;;
9234;SDS011;4652;42.716;23.218;2024-02-16T00:53:30;12.73;;;5.57;;
9234;SDS011;4652;42.716;23.218;2024-02-16T00:55:56;11.52;;;5.18;;
9234;SDS011;4652;42.716;23.218;2024-02-16T00:58:23;11.60;;;5.53;;
9234;SDS011;4652;42.716;23.218;2024-02-16T01:00:49;9.45;;;4.97;;
9234;SDS011;4652;42.716;23.218;2024-02-16T01:03:16;10.02;;;4.00;;
9234;SDS011;4652;42.716;23.218;2024-02-16T01:05:42;9.88;;;4.78;;
9234;SDS011;4652;42.716;23.218;2024-02-16T01:08:09;10.35;;;4.57;;
9234;SDS011;4652;42.716;23.218;2024-02-16T01:10:36;10.05;;;4.13;;
9234;SDS011;4652;42.716;23.218;2024-02-16T01:13:02;8.45;;;4.10;;
9234;SDS011;4652;42.716;23.218;2024-02-16T01:15:29;7.28;;;4.18;;
9234;SDS011;4652;42.716;23.218;2024-02-16T01:17:55;7.82;;;5.00;;
9234;SDS011;4652;42.716;23.218;2024-02-16T01:20:21;8.50;;;4.25;;
9234;SDS011;4652;42.716;23.218;2024-02-16T01:22:48;10.07;;;4.25;;
9234;SDS011;4652;42.716;23.218;2024-02-16T01:25:14;7.88;;;4.47;;
9234;SDS011;4652;42.716;23.218;2024-02-16T01:27:41;10.40;;;4.72;;
9234;SDS011;4652;42.716;23.218;2024-02-16T01:30:07;10.45;;;5.10;;
9234;SDS011;4652;42.716;23.218;2024-02-16T01:32:34;9.73;;;4.78;;
9234;SDS011;4652;42.716;23.218;2024-02-16T01:35:00;10.02;;;4.20;;
9234;SDS011;4652;42.716;23.218;2024-02-16T01:37:26;7.95;;;4.10;;
9234;SDS011;4652;42.716;23.218;2024-02-16T01:39:52;8.20;;;4.35;;
9234;SDS011;4652;42.716;23.218;2024-02-16T01:42:18;9.73;;;4.72;;
9234;SDS011;4652;42.716;23.218;2024-02-16T01:44:44;9.73;;;4.72;;
9234;SDS011;4652;42.716;23.218;2024-02-16T01:47:10;9.60;;;4.82;;
9234;SDS011;4652;42.716;23.218;2024-02-16T01:49:37;6.45;;;3.90;;
9234;SDS011;4652;42.716;23.218;2024-02-16T01:52:04;9.18;;;4.85;;
9234;SDS011;4652;42.716;23.218;2024-02-16T01:54:31;8.77;;;4.35;;
9234;SDS011;4652;42.716;23.218;2024-02-16T01:56:57;8.68;;;4.43;;
9234;SDS011;4652;42.716;23.218;2024-02-16T01:59:25;5.68;;;3.72;;
9234;SDS011;4652;42.716;23.218;2024-02-16T02:01:51;7.75;;;3.90;;
9234;SDS011;4652;42.716;23.218;2024-02-16T02:04:18;8.02;;;4.20;;
9234;SDS011;4652;42.716;23.218;2024-02-16T02:06:45;10.30;;;4.25;;
9234;SDS011;4652;42.716;23.218;2024-02-16T02:09:11;9.20;;;4.45;;
9234;SDS011;4652;42.716;23.218;2024-02-16T02:11:38;11.55;;;4.40;;
9234;SDS011;4652;42.716;23.218;2024-02-16T02:14:05;9.85;;;4.88;;
9234;SDS011;4652;42.716;23.218;2024-02-16T02:16:31;9.00;;;4.15;;
9234;SDS011;4652;42.716;23.218;2024-02-16T02:18:58;7.55;;;3.63;;
9234;SDS011;4652;42.716;23.218;2024-02-16T02:21:25;12.90;;;4.72;;
9234;SDS011;4652;42.716;23.218;2024-02-16T02:23:51;6.97;;;3.78;;
9234;SDS011;4652;42.716;23.218;2024-02-16T02:26:18;8.35;;;4.22;;
9234;SDS011;4652;42.716;23.218;2024-02-16T02:28:44;7.70;;;4.65;;
9234;SDS011;4652;42.716;23.218;2024-02-16T02:31:11;8.07;;;4.60;;
9234;SDS011;4652;42.716;23.218;2024-02-16T02:33:38;10.68;;;4.18;;
9234;SDS011;4652;42.716;23.218;2024-02-16T02:36:04;10.00;;;4.93;;
9234;SDS011;4652;42.716;23.218;2024-02-16T02:38:31;11.38;;;4.10;;
9234;SDS011;4652;42.716;23.218;2024-02-16T02:40:57;9.57;;;4.53;;
9234;SDS011;4652;42.716;23.218;2024-02-16T02:43:23;7.68;;;3.78;;
9234;SDS011;4652;42.716;23.218;2024-02-16T02:45:50;8.00;;;3.67;;
9234;SDS011;4652;42.716;23.218;2024-02-16T02:48:16;6.90;;;3.78;;
9234;SDS011;4652;42.716;23.218;2024-02-16T02:50:43;8.13;;;3.38;;
9234;SDS011;4652;42.716;23.218;2024-02-16T02:53:09;8.90;;;4.40;;
9234;SDS011;4652;42.716;23.218;2024-02-16T02:55:36;10.13;;;4.72;;
9234;SDS011;4652;42.716;23.218;2024-02-16T02:58:03;10.07;;;5.60;;
9234;SDS011;4652;42.716;23.218;2024-02-16T03:00:30;12.60;;;5.40;;
9234;SDS011;4652;42.716;23.218;2024-02-16T03:02:56;8.85;;;5.47;;
9234;SDS011;4652;42.716;23.218;2024-02-16T03:05:22;9.25;;;4.32;;
9234;SDS011;4652;42.716;23.218;2024-02-16T03:07:49;11.52;;;4.45;;
9234;SDS011;4652;42.716;23.218;2024-02-16T03:10:14;9.05;;;4.30;;
9234;SDS011;4652;42.716;23.218;2024-02-16T03:12:46;9.73;;;4.93;;
9234;SDS011;4652;42.716;23.218;2024-02-16T03:15:14;8.43;;;4.38;;
9234;SDS011;4652;42.716;23.218;2024-02-16T03:17:39;10.27;;;4.82;;
9234;SDS011;4652;42.716;23.218;2024-02-16T03:20:05;7.10;;;4.43;;
9234;SDS011;4652;42.716;23.218;2024-02-16T03:22:32;5.63;;;3.55;;
9234;SDS011;4652;42.716;23.218;2024-02-16T03:24:58;8.45;;;3.83;;
9234;SDS011;4652;42.716;23.218;2024-02-16T03:27:24;8.75;;;4.35;;
9234;SDS011;4652;42.716;23.218;2024-02-16T03:29:49;7.30;;;3.70;;
9234;SDS011;4652;42.716;23.218;2024-02-16T03:32:15;9.60;;;4.65;;
9234;SDS011;4652;42.716;23.218;2024-02-16T03:34:41;5.70;;;3.47;;
9234;SDS011;4652;42.716;23.218;2024-02-16T03:37:06;5.88;;;3.55;;
9234;SDS011;4652;42.716;23.218;2024-02-16T03:39:32;6.15;;;3.83;;
9234;SDS011;4652;42.716;23.218;2024-02-16T03:41:57;7.25;;;4.03;;
9234;SDS011;4652;42.716;23.218;2024-02-16T03:44:23;7.88;;;3.90;;
9234;SDS011;4652;42.716;23.218;2024-02-16T03:46:48;10.57;;;4.40;;
9234;SDS011;4652;42.716;23.218;2024-02-16T03:49:14;10.52;;;4.38;;
9234;SDS011;4652;42.716;23.218;2024-02-16T03:51:39;6.50;;;3.42;;
9234;SDS011;4652;42.716;23.218;2024-02-16T03:54:05;9.85;;;4.78;;
9234;SDS011;4652;42.716;23.218;2024-02-16T03:56:30;7.03;;;4.10;;
9234;SDS011;4652;42.716;23.218;2024-02-16T03:58:56;6.68;;;4.25;;
9234;SDS011;4652;42.716;23.218;2024-02-16T04:01:21;9.75;;;4.35;;
9234;SDS011;4652;42.716;23.218;2024-02-16T04:03:47;10.00;;;4.55;;
9234;SDS011;4652;42.716;23.218;2024-02-16T04:06:12;8.75;;;3.70;;
9234;SDS011;4652;42.716;23.218;2024-02-16T04:08:38;7.78;;;4.07;;
9234;SDS011;4652;42.716;23.218;2024-02-16T04:11:04;8.50;;;4.35;;
9234;SDS011;4652;42.716;23.218;2024-02-16T04:13:30;9.43;;;4.40;;
9234;SDS011;4652;42.716;23.218;2024-02-16T04:15:57;8.25;;;3.47;;
9234;SDS011;4652;42.716;23.218;2024-02-16T04:18:23;8.05;;;4.30;;
9234;SDS011;4652;42.716;23.218;2024-02-16T04:20:48;6.88;;;3.50;;
9234;SDS011;4652;42.716;23.218;2024-02-16T04:23:14;6.57;;;3.78;;
9234;SDS011;4652;42.716;23.218;2024-02-16T04:25:40;7.95;;;3.72;;
9234;SDS011;4652;42.716;23.218;2024-02-16T04:28:05;7.88;;;3.47;;
9234;SDS011;4652;42.716;23.218;2024-02-16T04:30:31;5.57;;;3.05;;
9234;SDS011;4652;42.716;23.218;2024-02-16T04:32:56;8.38;;;2.47;;
9234;SDS011;4652;42.716;23.218;2024-02-16T04:35:22;4.65;;;2.55;;
9234;SDS011;4652;42.716;23.218;2024-02-16T04:37:47;5.05;;;2.65;;
9234;SDS011;4652;42.716;23.218;2024-02-16T04:40:13;7.13;;;3.88;;
9234;SDS011;4652;42.716;23.218;2024-02-16T04:42:39;6.47;;;3.55;;
9234;SDS011;4652;42.716;23.218;2024-02-16T04:45:07;7.47;;;3.58;;
9234;SDS011;4652;42.716;23.218;2024-02-16T04:47:36;6.45;;;3.42;;
9234;SDS011;4652;42.716;23.218;2024-02-16T04:50:02;6.68;;;3.25;;
9234;SDS011;4652;42.716;23.218;2024-02-16T04:52:28;5.68;;;3.05;;
9234;SDS011;4652;42.716;23.218;2024-02-16T04:54:54;5.97;;;3.30;;
9234;SDS011;4652;42.716;23.218;2024-02-16T04:57:20;7.38;;;3.22;;
9234;SDS011;4652;42.716;23.218;2024-02-16T04:59:47;6.75;;;4.25;;
9234;SDS011;4652;42.716;23.218;2024-02-16T05:02:13;9.00;;;3.60;;
9234;SDS011;4652;42.716;23.218;2024-02-16T05:04:39;10.38;;;3.92;;
9234;SDS011;4652;42.716;23.218;2024-02-16T05:07:05;6.90;;;3.75;;
9234;SDS011;4652;42.716;23.218;2024-02-16T05:09:32;6.07;;;3.55;;
9234;SDS011;4652;42.716;23.218;2024-02-16T05:11:59;8.95;;;4.75;;
9234;SDS011;4652;42.716;23.218;2024-02-16T05:14:25;6.88;;;4.03;;
9234;SDS011;4652;42.716;23.218;2024-02-16T05:16:51;10.52;;;4.43;;
9234;SDS011;4652;42.716;23.218;2024-02-16T05:19:17;9.60;;;4.85;;
9234;SDS011;4652;42.716;23.218;2024-02-16T05:21:44;8.40;;;4.25;;
9234;SDS011;4652;42.716;23.218;2024-02-16T05:24:10;6.43;;;4.35;;
9234;SDS011;4652;42.716;23.218;2024-02-16T05:26:37;8.60;;;4.20;;
9234;SDS011;4652;42.716;23.218;2024-02-16T05:29:03;5.63;;;3.30;;
9234;SDS011;4652;42.716;23.218;2024-02-16T05:31:30;7.68;;;3.75;;
9234;SDS011;4652;42.716;23.218;2024-02-16T05:33:57;6.55;;;4.25;;
9234;SDS011;4652;42.716;23.218;2024-02-16T05:36:23;7.07;;;3.95;;
9234;SDS011;4652;42.716;23.218;2024-02-16T05:38:55;8.05;;;4.20;;
9234;SDS011;4652;42.716;23.218;2024-02-16T05:41:25;7.60;;;3.97;;
9234;SDS011;4652;42.716;23.218;2024-02-16T05:43:52;6.40;;;3.33;;
9234;SDS011;4652;42.716;23.218;2024-02-16T05:46:18;11.82;;;4.03;;
9234;SDS011;4652;42.716;23.218;2024-02-16T05:48:44;12.95;;;4.13;;
9234;SDS011;4652;42.716;23.218;2024-02-16T05:51:10;7.00;;;3.70;;
9234;SDS011;4652;42.716;23.218;2024-02-16T05:53:38;5.30;;;3.03;;
9234;SDS011;4652;42.716;23.218;2024-02-16T05:56:06;6.97;;;3.83;;
9234;SDS011;4652;42.716;23.218;2024-02-16T05:58:33;5.82;;;3.10;;
9234;SDS011;4652;42.716;23.218;2024-02-16T06:00:59;6.80;;;3.28;;
9234;SDS011;4652;42.716;23.218;2024-02-16T06:03:25;4.95;;;2.72;;
9234;SDS011;4652;42.716;23.218;2024-02-16T06:05:53;4.53;;;2.85;;
9234;SDS011;4652;42.716;23.218;2024-02-16T06:08:19;7.70;;;2.65;;
9234;SDS011;4652;42.716;23.218;2024-02-16T06:10:45;5.65;;;2.95;;
9234;SDS011;4652;42.716;23.218;2024-02-16T06:13:16;6.13;;;3.22;;
9234;SDS011;4652;42.716;23.218;2024-02-16T06:15:42;7.22;;;3.72;;
9234;SDS011;4652;42.716;23.218;2024-02-16T15:50:16;17.98;;;8.30;;
9234;SDS011;4652;42.716;23.218;2024-02-16T15:52:42;14.63;;;8.13;;
9234;SDS011;4652;42.716;23.218;2024-02-16T15:55:08;20.48;;;12.30;;
9234;SDS011;4652;42.716;23.218;2024-02-16T15:57:33;13.70;;;8.73;;
9234;SDS011;4652;42.716;23.218;2024-02-16T15:59:59;19.08;;;8.68;;
9234;SDS011;4652;42.716;23.218;2024-02-16T16:02:24;16.50;;;8.18;;
9234;SDS011;4652;42.716;23.218;2024-02-16T16:04:50;15.60;;;7.03;;
9234;SDS011;4652;42.716;23.218;2024-02-16T16:07:16;30.75;;;10.57;;
9234;SDS011;4652;42.716;23.218;2024-02-16T16:09:43;64.90;;;17.50;;
9234;SDS011;4652;42.716;23.218;2024-02-16T16:12:09;40.03;;;12.27;;
9234;SDS011;4652;42.716;23.218;2024-02-16T16:14:35;17.55;;;7.75;;
9234;SDS011;4652;42.716;23.218;2024-02-16T16:17:02;18.88;;;7.28;;
9234;SDS011;4652;42.716;23.218;2024-02-16T16:19:28;33.35;;;11.05;;
9234;SDS011;4652;42.716;23.218;2024-02-16T16:21:55;38.20;;;11.05;;
9234;SDS011;4652;42.716;23.218;2024-02-16T16:24:21;74.22;;;20.15;;
9234;SDS011;4652;42.716;23.218;2024-02-16T16:26:48;56.83;;;18.98;;
9234;SDS011;4652;42.716;23.218;2024-02-16T16:29:14;107.30;;;28.50;;
9234;SDS011;4652;42.716;23.218;2024-02-16T16:31:41;57.47;;;16.60;;
9234;SDS011;4652;42.716;23.218;2024-02-16T16:34:07;53.65;;;17.65;;
9234;SDS011;4652;42.716;23.218;2024-02-16T16:36:34;73.32;;;22.48;;
9234;SDS011;4652;42.716;23.218;2024-02-16T16:39:01;87.55;;;23.98;;
9234;SDS011;4652;42.716;23.218;2024-02-16T16:41:29;91.82;;;25.55;;
9234;SDS011;4652;42.716;23.218;2024-02-16T16:43:55;112.80;;;33.08;;
9234;SDS011;4652;42.716;23.218;2024-02-16T16:46:21;156.23;;;43.90;;
9234;SDS011;4652;42.716;23.218;2024-02-16T16:48:46;177.68;;;48.40;;
9234;SDS011;4652;42.716;23.218;2024-02-16T16:51:12;181.13;;;50.38;;
9234;SDS011;4652;42.716;23.218;2024-02-16T16:53:39;216.52;;;57.45;;
9234;SDS011;4652;42.716;23.218;2024-02-16T16:56:04;167.40;;;51.55;;
9234;SDS011;4652;42.716;23.218;2024-02-16T16:58:30;62.88;;;26.58;;
9234;SDS011;4652;42.716;23.218;2024-02-16T17:00:56;65.88;;;24.08;;
9234;SDS011;4652;42.716;23.218;2024-02-16T17:03:22;60.88;;;23.30;;
9234;SDS011;4652;42.716;23.218;2024-02-16T17:05:49;69.65;;;26.58;;
9234;SDS011;4652;42.716;23.218;2024-02-16T17:08:15;33.33;;;14.93;;
9234;SDS011;4652;42.716;23.218;2024-02-16T17:10:42;29.63;;;12.38;;
9234;SDS011;4652;42.716;23.218;2024-02-16T17:13:08;37.22;;;13.30;;
9234;SDS011;4652;42.716;23.218;2024-02-16T17:15:34;32.78;;;12.10;;
9234;SDS011;4652;42.716;23.218;2024-02-16T17:18:00;21.65;;;8.85;;
9234;SDS011;4652;42.716;23.218;2024-02-16T17:20:27;5.38;;;3.42;;
9234;SDS011;4652;42.716;23.218;2024-02-16T17:22:53;6.75;;;3.78;;
9234;SDS011;4652;42.716;23.218;2024-02-16T17:25:20;10.93;;;5.65;;
9234;SDS011;4652;42.716;23.218;2024-02-16T17:27:47;22.85;;;7.50;;
9234;SDS011;4652;42.716;23.218;2024-02-16T17:30:14;16.58;;;7.55;;
9234;SDS011;4652;42.716;23.218;2024-02-16T17:32:41;14.02;;;7.88;;
9234;SDS011;4652;42.716;23.218;2024-02-16T17:35:07;21.00;;;9.63;;
9234;SDS011;4652;42.716;23.218;2024-02-16T17:37:34;17.92;;;7.95;;
9234;SDS011;4652;42.716;23.218;2024-02-16T17:40:00;17.30;;;8.30;;
9234;SDS011;4652;42.716;23.218;2024-02-16T17:42:26;19.02;;;8.65;;
9234;SDS011;4652;42.716;23.218;2024-02-16T17:44:53;14.75;;;7.50;;
9234;SDS011;4652;42.716;23.218;2024-02-16T17:47:21;17.25;;;7.97;;
9234;SDS011;4652;42.716;23.218;2024-02-16T17:49:46;13.35;;;7.00;;
9234;SDS011;4652;42.716;23.218;2024-02-16T17:52:12;15.85;;;7.88;;
9234;SDS011;4652;42.716;23.218;2024-02-16T17:54:39;18.30;;;6.85;;
9234;SDS011;4652;42.716;23.218;2024-02-16T17:57:05;13.32;;;7.40;;
9234;SDS011;4652;42.716;23.218;2024-02-16T17:59:31;15.68;;;6.65;;
9234;SDS011;4652;42.716;23.218;2024-02-16T18:01:58;15.43;;;7.30;;
9234;SDS011;4652;42.716;23.218;2024-02-16T18:04:26;13.95;;;7.03;;
9234;SDS011;4652;42.716;23.218;2024-02-16T18:06:52;14.50;;;6.00;;
9234;SDS011;4652;42.716;23.218;2024-02-16T18:09:19;13.35;;;6.35;;
9234;SDS011;4652;42.716;23.218;2024-02-16T18:11:45;11.48;;;5.47;;
9234;SDS011;4652;42.716;23.218;2024-02-16T18:14:11;10.32;;;5.63;;
9234;SDS011;4652;42.716;23.218;2024-02-16T18:16:37;16.67;;;5.65;;
9234;SDS011;4652;42.716;23.218;2024-02-16T18:19:03;12.38;;;6.15;;
9234;SDS011;4652;42.716;23.218;2024-02-16T18:21:31;20.65;;;9.30;;
9234;SDS011;4652;42.716;23.218;2024-02-16T18:23:57;15.27;;;7.15;;
9234;SDS011;4652;42.716;23.218;2024-02-16T18:26:25;15.88;;;7.13;;
9234;SDS011;4652;42.716;23.218;2024-02-16T18:28:53;15.00;;;7.13;;
9234;SDS011;4652;42.716;23.218;2024-02-16T18:31:19;13.20;;;6.43;;
9234;SDS011;4652;42.716;23.218;2024-02-16T18:33:46;20.02;;;8.77;;
9234;SDS011;4652;42.716;23.218;2024-02-16T18:36:12;18.17;;;7.75;;
9234;SDS011;4652;42.716;23.218;2024-02-16T18:38:38;14.38;;;5.38;;
9234;SDS011;4652;42.716;23.218;2024-02-16T18:41:07;8.32;;;4.95;;
9234;SDS011;4652;42.716;23.218;2024-02-16T18:43:33;9.75;;;4.93;;
9234;SDS011;4652;42.716;23.218;2024-02-16T18:45:59;10.05;;;4.50;;
9234;SDS011;4652;42.716;23.218;2024-02-16T18:48:24;10.35;;;5.20;;
9234;SDS011;4652;42.716;23.218;2024-02-16T18:50:51;11.82;;;4.95;;
9234;SDS011;4652;42.716;23.218;2024-02-16T18:53:17;14.32;;;5.57;;
9234;SDS011;4652;42.716;23.218;2024-02-16T18:55:45;11.07;;;5.38;;
9234;SDS011;4652;42.716;23.218;2024-02-16T18:58:13;12.32;;;6.20;;
9234;SDS011;4652;42.716;23.218;2024-02-16T19:00:38;12.68;;;5.82;;
9234;SDS011;4652;42.716;23.218;2024-02-16T19:03:04;12.48;;;5.68;;
9234;SDS011;4652;42.716;23.218;2024-02-16T19:05:29;12.15;;;5.95;;
9234;SDS011;4652;42.716;23.218;2024-02-16T19:07:57;12.60;;;5.85;;
9234;SDS011;4652;42.716;23.218;2024-02-16T19:10:23;11.60;;;5.65;;
9234;SDS011;4652;42.716;23.218;2024-02-16T19:12:48;12.10;;;6.20;;
9234;SDS011;4652;42.716;23.218;2024-02-16T19:15:14;13.63;;;6.72;;
9234;SDS011;4652;42.716;23.218;2024-02-16T19:17:40;10.57;;;5.88;;
9234;SDS011;4652;42.716;23.218;2024-02-16T19:20:05;13.85;;;6.40;;
9234;SDS011;4652;42.716;23.218;2024-02-16T19:22:31;9.57;;;4.30;;
9234;SDS011;4652;42.716;23.218;2024-02-16T19:24:57;12.93;;;5.32;;
9234;SDS011;4652;42.716;23.218;2024-02-16T19:27:22;10.32;;;4.63;;
9234;SDS011;4652;42.716;23.218;2024-02-16T19:29:49;8.15;;;4.38;;
9234;SDS011;4652;42.716;23.218;2024-02-16T19:32:15;12.25;;;4.78;;
9234;SDS011;4652;42.716;23.218;2024-02-16T19:34:40;7.05;;;4.47;;
9234;SDS011;4652;42.716;23.218;2024-02-16T19:37:06;9.35;;;4.35;;
9234;SDS011;4652;42.716;23.218;2024-02-16T19:39:32;9.10;;;4.45;;
9234;SDS011;4652;42.716;23.218;2024-02-16T19:41:57;10.05;;;4.50;;
9234;SDS011;4652;42.716;23.218;2024-02-16T19:44:23;8.57;;;4.88;;
9234;SDS011;4652;42.716;23.218;2024-02-16T19:46:51;7.70;;;4.10;;
9234;SDS011;4652;42.716;23.218;2024-02-16T19:49:19;8.57;;;4.95;;
9234;SDS011;4652;42.716;23.218;2024-02-16T19:51:48;8.07;;;4.03;;
9234;SDS011;4652;42.716;23.218;2024-02-16T19:54:14;9.25;;;4.18;;
9234;SDS011;4652;42.716;23.218;2024-02-16T19:56:40;7.30;;;3.90;;
9234;SDS011;4652;42.716;23.218;2024-02-16T19:59:07;10.13;;;3.78;;
9234;SDS011;4652;42.716;23.218;2024-02-16T20:01:33;9.10;;;4.60;;
9234;SDS011;4652;42.716;23.218;2024-02-16T20:03:59;10.52;;;4.78;;
9234;SDS011;4652;42.716;23.218;2024-02-16T20:06:25;9.07;;;4.38;;
9234;SDS011;4652;42.716;23.218;2024-02-16T20:08:54;12.38;;;4.75;;
9234;SDS011;4652;42.716;23.218;2024-02-16T20:11:21;11.00;;;5.10;;
9234;SDS011;4652;42.716;23.218;2024-02-16T20:13:47;11.95;;;4.55;;
9234;SDS011;4652;42.716;23.218;2024-02-16T20:16:17;9.45;;;4.18;;
9234;SDS011;4652;42.716;23.218;2024-02-16T20:18:43;7.28;;;3.83;;
9234;SDS011;4652;42.716;23.218;2024-02-16T20:21:10;7.65;;;4.00;;
9234;SDS011;4652;42.716;23.218;2024-02-16T20:23:38;8.00;;;3.95;;
9234;SDS011;4652;42.716;23.218;2024-02-16T20:26:04;8.98;;;5.60;;
9234;SDS011;4652;42.716;23.218;2024-02-16T20:28:30;8.75;;;4.05;;
9234;SDS011;4652;42.716;23.218;2024-02-16T20:30:56;12.30;;;4.57;;
9234;SDS011;4652;42.716;23.218;2024-02-16T20:33:30;9.48;;;4.75;;
9234;SDS011;4652;42.716;23.218;2024-02-16T20:35:57;8.90;;;5.10;;
9234;SDS011;4652;42.716;23.218;2024-02-16T20:38:24;8.13;;;3.38;;
9234;SDS011;4652;42.716;23.218;2024-02-16T20:40:50;10.45;;;3.92;;
9234;SDS011;4652;42.716;23.218;2024-02-16T20:43:16;8.65;;;4.13;;
9234;SDS011;4652;42.716;23.218;2024-02-16T20:45:43;9.93;;;4.22;;
9234;SDS011;4652;42.716;23.218;2024-02-16T20:48:09;9.68;;;4.40;;
9234;SDS011;4652;42.716;23.218;2024-02-16T20:50:35;8.95;;;4.60;;
9234;SDS011;4652;42.716;23.218;2024-02-16T20:53:02;9.02;;;4.22;;
9234;SDS011;4652;42.716;23.218;2024-02-16T20:55:28;16.90;;;4.60;;
9234;SDS011;4652;42.716;23.218;2024-02-16T20:57:55;7.72;;;3.38;;
9234;SDS011;4652;42.716;23.218;2024-02-16T21:00:22;6.88;;;3.60;;
9234;SDS011;4652;42.716;23.218;2024-02-16T21:02:50;7.15;;;3.88;;
9234;SDS011;4652;42.716;23.218;2024-02-16T21:05:19;9.00;;;3.80;;
9234;SDS011;4652;42.716;23.218;2024-02-16T21:08:04;6.70;;;3.28;;
9234;SDS011;4652;42.716;23.218;2024-02-16T21:10:31;6.18;;;3.35;;
9234;SDS011;4652;42.716;23.218;2024-02-16T21:12:57;8.48;;;3.80;;
9234;SDS011;4652;42.716;23.218;2024-02-16T21:15:24;6.40;;;4.15;;
9234;SDS011;4652;42.716;23.218;2024-02-16T21:17:50;9.15;;;4.30;;
9234;SDS011;4652;42.716;23.218;2024-02-16T21:20:17;11.70;;;4.13;;
9234;SDS011;4652;42.716;23.218;2024-02-16T21:22:43;8.60;;;4.38;;
9234;SDS011;4652;42.716;23.218;2024-02-16T21:25:10;6.75;;;4.25;;
9234;SDS011;4652;42.716;23.218;2024-02-16T21:27:35;8.40;;;4.38;;
9234;SDS011;4652;42.716;23.218;2024-02-16T21:30:01;8.15;;;4.25;;
9234;SDS011;4652;42.716;23.218;2024-02-16T21:32:26;8.85;;;4.63;;
9234;SDS011;4652;42.716;23.218;2024-02-16T21:34:52;8.32;;;4.53;;
9234;SDS011;4652;42.716;23.218;2024-02-16T21:37:19;10.73;;;5.60;;
9234;SDS011;4652;42.716;23.218;2024-02-16T21:39:45;9.93;;;4.43;;
9234;SDS011;4652;42.716;23.218;2024-02-16T21:42:10;8.23;;;4.20;;
9234;SDS011;4652;42.716;23.218;2024-02-16T21:44:38;13.32;;;4.40;;
9234;SDS011;4652;42.716;23.218;2024-02-16T21:47:06;10.20;;;5.07;;
9234;SDS011;4652;42.716;23.218;2024-02-16T21:49:32;8.88;;;4.40;;
9234;SDS011;4652;42.716;23.218;2024-02-16T21:51:57;12.10;;;5.03;;
9234;SDS011;4652;42.716;23.218;2024-02-16T21:54:23;12.18;;;5.32;;
9234;SDS011;4652;42.716;23.218;2024-02-16T21:56:49;10.25;;;6.55;;
9234;SDS011;4652;42.716;23.218;2024-02-16T21:59:14;15.93;;;6.50;;
9234;SDS011;4652;42.716;23.218;2024-02-16T22:01:40;13.45;;;5.57;;
9234;SDS011;4652;42.716;23.218;2024-02-16T22:04:05;11.40;;;5.35;;
9234;SDS011;4652;42.716;23.218;2024-02-16T22:06:31;9.80;;;4.80;;
9234;SDS011;4652;42.716;23.218;2024-02-16T22:08:57;9.02;;;4.57;;
9234;SDS011;4652;42.716;23.218;2024-02-16T22:11:23;27.17;;;9.15;;
9234;SDS011;4652;42.716;23.218;2024-02-16T22:13:49;25.27;;;9.25;;
9234;SDS011;4652;42.716;23.218;2024-02-16T22:16:16;38.45;;;13.07;;
9234;SDS011;4652;42.716;23.218;2024-02-16T22:18:43;30.77;;;10.93;;
9234;SDS011;4652;42.716;23.218;2024-02-16T22:21:10;14.95;;;7.47;;
9234;SDS011;4652;42.716;23.218;2024-02-16T22:23:36;14.13;;;6.68;;
9234;SDS011;4652;42.716;23.218;2024-02-16T22:26:02;11.63;;;6.75;;
9234;SDS011;4652;42.716;23.218;2024-02-16T22:28:28;15.95;;;6.20;;
9234;SDS011;4652;42.716;23.218;2024-02-16T22:30:54;15.52;;;5.90;;
9234;SDS011;4652;42.716;23.218;2024-02-16T22:33:19;11.85;;;6.00;;
9234;SDS011;4652;42.716;23.218;2024-02-16T22:35:45;13.55;;;5.50;;
9234;SDS011;4652;42.716;23.218;2024-02-16T22:38:11;10.88;;;4.95;;
9234;SDS011;4652;42.716;23.218;2024-02-16T22:40:36;11.95;;;5.10;;
9234;SDS011;4652;42.716;23.218;2024-02-16T22:43:02;9.55;;;5.03;;
9234;SDS011;4652;42.716;23.218;2024-02-16T22:45:29;11.60;;;5.05;;
9234;SDS011;4652;42.716;23.218;2024-02-16T22:47:56;11.45;;;5.57;;
9234;SDS011;4652;42.716;23.218;2024-02-16T22:50:22;11.63;;;4.88;;
9234;SDS011;4652;42.716;23.218;2024-02-16T22:52:48;10.68;;;6.07;;
9234;SDS011;4652;42.716;23.218;2024-02-16T22:55:14;11.25;;;5.65;;
9234;SDS011;4652;42.716;23.218;2024-02-16T22:57:40;16.42;;;7.05;;
9234;SDS011;4652;42.716;23.218;2024-02-16T23:00:06;14.15;;;5.65;;
9234;SDS011;4652;42.716;23.218;2024-02-16T23:02:42;13.70;;;7.05;;
9234;SDS011;4652;42.716;23.218;2024-02-16T23:05:09;11.32;;;5.65;;
9234;SDS011;4652;42.716;23.218;2024-02-16T23:07:35;11.52;;;6.15;;
9234;SDS011;4652;42.716;23.218;2024-02-16T23:10:00;10.57;;;6.32;;
9234;SDS011;4652;42.716;23.218;2024-02-16T23:12:26;18.25;;;7.07;;
9234;SDS011;4652;42.716;23.218;2024-02-16T23:14:54;11.90;;;6.00;;
9234;SDS011;4652;42.716;23.218;2024-02-16T23:17:23;14.23;;;6.53;;
9234;SDS011;4652;42.716;23.218;2024-02-16T23:19:48;13.85;;;6.38;;
9234;SDS011;4652;42.716;23.218;2024-02-16T23:22:14;15.10;;;6.88;;
9234;SDS011;4652;42.716;23.218;2024-02-16T23:24:39;14.32;;;6.95;;
9234;SDS011;4652;42.716;23.218;2024-02-16T23:27:05;11.10;;;6.00;;
9234;SDS011;4652;42.716;23.218;2024-02-16T23:29:31;11.45;;;6.35;;
9234;SDS011;4652;42.716;23.218;2024-02-16T23:31:56;14.18;;;6.10;;
9234;SDS011;4652;42.716;23.218;2024-02-16T23:34:24;12.60;;;6.30;;
9234;SDS011;4652;42.716;23.218;2024-02-16T23:36:51;10.23;;;5.80;;
9234;SDS011;4652;42.716;23.218;2024-02-16T23:39:17;9.90;;;4.82;;
9234;SDS011;4652;42.716;23.218;2024-02-16T23:41:43;12.18;;;5.93;;
9234;SDS011;4652;42.716;23.218;2024-02-16T23:44:08;8.18;;;5.50;;
9234;SDS011;4652;42.716;23.218;2024-02-16T23:46:34;13.25;;;6.35;;
9234;SDS011;4652;42.716;23.218;2024-02-16T23:49:03;7.90;;;4.53;;
9234;SDS011;4652;42.716;23.218;2024-02-16T23:51:29;7.90;;;5.32;;
9234;SDS011;4652;42.716;23.218;2024-02-16T23:53:55;10.60;;;4.80;;
9234;SDS011;4652;42.716;23.218;2024-02-16T23:56:20;6.90;;;4.43;;
9234;SDS011;4652;42.716;23.218;2024-02-16T23:58:46;10.05;;;5.15;;
